sensor_id;sensor_type;location;lat;lon;timestamp;pressure;altitude;pressure_sealevel;temperature
53512;BMP280;39392;52.832;13.816;2024-03-02T00:00:21;100444.34;;;18.79
53512;BMP280;39392;52.832;13.816;2024-03-02T00:02:48;100439.75;;;18.79
53512;BMP280;39392;52.832;13.816;2024-03-02T00:05:19;100446.03;;;18.80
53512;BMP280;39392;52.832;13.816;2024-03-02T00:07:48;100439.75;;;18.79
53512;BMP280;39392;52.832;13.816;2024-03-02T00:10:34;100444.34;;;18.79
53512;BMP280;39392;52.832;13.816;2024-03-02T00:13:03;100437.25;;;18.78
53512;BMP280;39392;52.832;13.816;2024-03-02T00:17:56;100437.03;;;18.79
53512;BMP280;39392;52.832;13.816;2024-03-02T00:20:22;100429.75;;;18.80
53512;BMP280;39392;52.832;13.816;2024-03-02T00:23:05;100429.75;;;18.80
53512;BMP280;39392;52.832;13.816;2024-03-02T00:25:41;100433.28;;;18.80
53512;BMP280;39392;52.832;13.816;2024-03-02T00:33:17;100427.03;;;18.80
53512;BMP280;39392;52.832;13.816;2024-03-02T00:35:45;100428.72;;;18.81
53512;BMP280;39392;52.832;13.816;2024-03-02T00:38:11;100425.84;;;18.82
53512;BMP280;39392;52.832;13.816;2024-03-02T00:40:38;100423.28;;;18.81
53512;BMP280;39392;52.832;13.816;2024-03-02T00:43:05;100418.72;;;18.81
53512;BMP280;39392;52.832;13.816;2024-03-02T00:45:32;100421.44;;;18.81
53512;BMP280;39392;52.832;13.816;2024-03-02T00:47:58;100419.56;;;18.82
53512;BMP280;39392;52.832;13.816;2024-03-02T00:50:25;100413.09;;;18.83
53512;BMP280;39392;52.832;13.816;2024-03-02T00:52:56;100411.22;;;18.83
53512;BMP280;39392;52.832;13.816;2024-03-02T00:55:22;100415.44;;;18.86
53512;BMP280;39392;52.832;13.816;2024-03-02T00:57:49;100410.66;;;18.88
53512;BMP280;39392;52.832;13.816;2024-03-02T01:00:15;100410.50;;;18.89
53512;BMP280;39392;52.832;13.816;2024-03-02T01:02:44;100409.47;;;18.90
53512;BMP280;39392;52.832;13.816;2024-03-02T01:05:12;100406.75;;;18.90
53512;BMP280;39392;52.832;13.816;2024-03-02T01:07:39;100405.06;;;18.89
53512;BMP280;39392;52.832;13.816;2024-03-02T01:10:05;100406.75;;;18.90
53512;BMP280;39392;52.832;13.816;2024-03-02T01:12:32;100400.28;;;18.91
53512;BMP280;39392;52.832;13.816;2024-03-02T01:14:58;100399.25;;;18.92
53512;BMP280;39392;52.832;13.816;2024-03-02T01:17:25;100409.28;;;18.92
53512;BMP280;39392;52.832;13.816;2024-03-02T01:19:51;100407.22;;;18.94
53512;BMP280;39392;52.832;13.816;2024-03-02T01:22:17;100401.97;;;18.92
53512;BMP280;39392;52.832;13.816;2024-03-02T01:24:50;100399.09;;;18.94
53512;BMP280;39392;52.832;13.816;2024-03-02T01:27:16;100400.97;;;18.94
53512;BMP280;39392;52.832;13.816;2024-03-02T01:29:43;100400.09;;;18.93
53512;BMP280;39392;52.832;13.816;2024-03-02T01:32:09;100399.94;;;18.95
53512;BMP280;39392;52.832;13.816;2024-03-02T01:34:35;100394.66;;;18.93
53512;BMP280;39392;52.832;13.816;2024-03-02T01:37:02;100389.06;;;18.95
53512;BMP280;39392;52.832;13.816;2024-03-02T01:39:29;100393.47;;;18.96
53512;BMP280;39392;52.832;13.816;2024-03-02T01:41:55;100404.31;;;18.96
53512;BMP280;39392;52.832;13.816;2024-03-02T01:44:22;100411.63;;;18.95
53512;BMP280;39392;52.832;13.816;2024-03-02T01:46:48;100398.06;;;18.95
53512;BMP280;39392;52.832;13.816;2024-03-02T01:49:15;100390.56;;;18.97
53512;BMP280;39392;52.832;13.816;2024-03-02T01:51:41;100394.78;;;19.00
53512;BMP280;39392;52.832;13.816;2024-03-02T01:54:07;100393.56;;;19.02
53512;BMP280;39392;52.832;13.816;2024-03-02T01:56:34;100394.59;;;19.01
53512;BMP280;39392;52.832;13.816;2024-03-02T01:59:01;100395.25;;;19.03
53512;BMP280;39392;52.832;13.816;2024-03-02T02:01:27;100382.53;;;19.04
53512;BMP280;39392;52.832;13.816;2024-03-02T02:03:54;100376.06;;;19.05
53512;BMP280;39392;52.832;13.816;2024-03-02T02:06:20;100367.75;;;19.06
53512;BMP280;39392;52.832;13.816;2024-03-02T02:08:47;100367.75;;;19.06
53512;BMP280;39392;52.832;13.816;2024-03-02T02:11:14;100361.44;;;19.06
53512;BMP280;39392;52.832;13.816;2024-03-02T02:13:41;100353.28;;;19.06
53512;BMP280;39392;52.832;13.816;2024-03-02T02:16:08;100363.97;;;19.07
53512;BMP280;39392;52.832;13.816;2024-03-02T02:18:34;100371.94;;;19.09
53512;BMP280;39392;52.832;13.816;2024-03-02T02:21:02;100369.22;;;19.09
53512;BMP280;39392;52.832;13.816;2024-03-02T02:23:29;100361.91;;;19.09
53512;BMP280;39392;52.832;13.816;2024-03-02T02:25:56;100360.03;;;19.10
53512;BMP280;39392;52.832;13.816;2024-03-02T02:28:22;100356.31;;;19.11
53512;BMP280;39392;52.832;13.816;2024-03-02T02:30:49;100356.94;;;19.13
53512;BMP280;39392;52.832;13.816;2024-03-02T02:33:15;100358.00;;;19.12
53512;BMP280;39392;52.832;13.816;2024-03-02T02:35:42;100359.03;;;19.11
53512;BMP280;39392;52.832;13.816;2024-03-02T02:38:08;100364.25;;;19.12
53512;BMP280;39392;52.832;13.816;2024-03-02T02:40:35;100366.78;;;19.14
53512;BMP280;39392;52.832;13.816;2024-03-02T02:43:01;100367.66;;;19.14
53512;BMP280;39392;52.832;13.816;2024-03-02T02:45:28;100364.94;;;19.14
53512;BMP280;39392;52.832;13.816;2024-03-02T02:47:54;100369.34;;;19.15
53512;BMP280;39392;52.832;13.816;2024-03-02T02:50:21;100364.75;;;19.16
53512;BMP280;39392;52.832;13.816;2024-03-02T02:52:47;100359.31;;;19.16
53512;BMP280;39392;52.832;13.816;2024-03-02T02:55:14;100368.09;;;19.18
53512;BMP280;39392;52.832;13.816;2024-03-02T02:57:42;100362.66;;;19.18
53512;BMP280;39392;52.832;13.816;2024-03-02T03:00:11;100368.94;;;19.19
53512;BMP280;39392;52.832;13.816;2024-03-02T03:02:42;100364.53;;;19.17
53512;BMP280;39392;52.832;13.816;2024-03-02T03:05:09;100369.97;;;19.17
53512;BMP280;39392;52.832;13.816;2024-03-02T03:07:36;100362.88;;;19.16
53512;BMP280;39392;52.832;13.816;2024-03-02T03:10:04;100359.78;;;19.20
53512;BMP280;39392;52.832;13.816;2024-03-02T03:12:30;100356.03;;;19.21
53512;BMP280;39392;52.832;13.816;2024-03-02T03:15:00;100349.56;;;19.22
53512;BMP280;39392;52.832;13.816;2024-03-02T03:17:26;100350.59;;;19.21
53512;BMP280;39392;52.832;13.816;2024-03-02T03:19:56;100354.16;;;19.21
53512;BMP280;39392;52.832;13.816;2024-03-02T03:22:22;100354.16;;;19.21
53512;BMP280;39392;52.832;13.816;2024-03-02T03:24:48;100356.03;;;19.21
53512;BMP280;39392;52.832;13.816;2024-03-02T03:27:15;100358.53;;;19.22
53512;BMP280;39392;52.832;13.816;2024-03-02T03:29:41;100362.50;;;19.20
53512;BMP280;39392;52.832;13.816;2024-03-02T03:32:08;100367.94;;;19.20
53512;BMP280;39392;52.832;13.816;2024-03-02T03:34:35;100365.22;;;19.20
53512;BMP280;39392;52.832;13.816;2024-03-02T03:37:02;100368.56;;;19.22
53512;BMP280;39392;52.832;13.816;2024-03-02T03:39:28;100361.94;;;19.24
53512;BMP280;39392;52.832;13.816;2024-03-02T03:41:55;100358.38;;;19.24
53512;BMP280;39392;52.832;13.816;2024-03-02T03:44:21;100367.38;;;19.24
53512;BMP280;39392;52.832;13.816;2024-03-02T03:46:47;100365.28;;;19.26
53512;BMP280;39392;52.832;13.816;2024-03-02T03:49:14;100367.66;;;19.29
53512;BMP280;39392;52.832;13.816;2024-03-02T03:51:40;100364.94;;;19.29
53512;BMP280;39392;52.832;13.816;2024-03-02T03:54:07;100364.28;;;19.27
53512;BMP280;39392;52.832;13.816;2024-03-02T03:56:34;100364.28;;;19.27
53512;BMP280;39392;52.832;13.816;2024-03-02T03:59:00;100366.81;;;19.29
53512;BMP280;39392;52.832;13.816;2024-03-02T04:01:27;100370.16;;;19.31
53512;BMP280;39392;52.832;13.816;2024-03-02T04:03:54;100368.31;;;19.31
53512;BMP280;39392;52.832;13.816;2024-03-02T04:06:21;100366.59;;;19.30
53512;BMP280;39392;52.832;13.816;2024-03-02T04:08:47;100367.44;;;19.31
53512;BMP280;39392;52.832;13.816;2024-03-02T04:11:14;100365.59;;;19.31
53512;BMP280;39392;52.832;13.816;2024-03-02T04:13:40;100359.97;;;19.33
53512;BMP280;39392;52.832;13.816;2024-03-02T04:16:07;100362.69;;;19.33
53512;BMP280;39392;52.832;13.816;2024-03-02T04:18:33;100371.66;;;19.33
53512;BMP280;39392;52.832;13.816;2024-03-02T04:21:01;100368.13;;;19.33
53512;BMP280;39392;52.832;13.816;2024-03-02T04:23:27;100373.56;;;19.33
53512;BMP280;39392;52.832;13.816;2024-03-02T04:25:54;100370.63;;;19.34
53512;BMP280;39392;52.832;13.816;2024-03-02T04:28:20;100375.06;;;19.35
53512;BMP280;39392;52.832;13.816;2024-03-02T04:30:47;100376.91;;;19.35
53512;BMP280;39392;52.832;13.816;2024-03-02T04:33:13;100371.47;;;19.35
53512;BMP280;39392;52.832;13.816;2024-03-02T04:35:40;100378.78;;;19.34
53512;BMP280;39392;52.832;13.816;2024-03-02T04:38:07;100378.97;;;19.33
53512;BMP280;39392;52.832;13.816;2024-03-02T04:40:33;100378.16;;;19.32
53512;BMP280;39392;52.832;13.816;2024-03-02T04:42:59;100373.75;;;19.31
53512;BMP280;39392;52.832;13.816;2024-03-02T04:45:26;100380.88;;;19.32
53512;BMP280;39392;52.832;13.816;2024-03-02T04:47:52;100377.09;;;19.33
53512;BMP280;39392;52.832;13.816;2024-03-02T04:50:19;100385.25;;;19.33
53512;BMP280;39392;52.832;13.816;2024-03-02T04:52:45;100385.94;;;19.35
53512;BMP280;39392;52.832;13.816;2024-03-02T04:55:12;100387.63;;;19.36
53512;BMP280;39392;52.832;13.816;2024-03-02T04:57:53;100389.28;;;19.37
53512;BMP280;39392;52.832;13.816;2024-03-02T05:00:21;100384.91;;;19.36
53512;BMP280;39392;52.832;13.816;2024-03-02T05:02:48;100381.34;;;19.36
53512;BMP280;39392;52.832;13.816;2024-03-02T05:05:14;100381.97;;;19.38
53512;BMP280;39392;52.832;13.816;2024-03-02T05:07:43;100380.09;;;19.38
53512;BMP280;39392;52.832;13.816;2024-03-02T05:10:10;100374.66;;;19.38
53512;BMP280;39392;52.832;13.816;2024-03-02T05:12:38;100381.63;;;19.41
53512;BMP280;39392;52.832;13.816;2024-03-02T05:15:11;100379.94;;;19.40
53512;BMP280;39392;52.832;13.816;2024-03-02T05:17:38;100391.81;;;19.39
53512;BMP280;39392;52.832;13.816;2024-03-02T05:20:05;100389.94;;;19.39
53512;BMP280;39392;52.832;13.816;2024-03-02T05:22:31;100387.22;;;19.39
53512;BMP280;39392;52.832;13.816;2024-03-02T05:25:00;100388.09;;;19.40
53512;BMP280;39392;52.832;13.816;2024-03-02T05:27:27;100396.25;;;19.40
53512;BMP280;39392;52.832;13.816;2024-03-02T05:29:54;100389.94;;;19.39
53512;BMP280;39392;52.832;13.816;2024-03-02T05:32:20;100396.25;;;19.40
53512;BMP280;39392;52.832;13.816;2024-03-02T05:34:47;100397.91;;;19.41
53512;BMP280;39392;52.832;13.816;2024-03-02T05:37:13;100400.63;;;19.41
53512;BMP280;39392;52.832;13.816;2024-03-02T05:39:40;100403.34;;;19.41
53512;BMP280;39392;52.832;13.816;2024-03-02T05:42:06;100397.25;;;19.39
53512;BMP280;39392;52.832;13.816;2024-03-02T05:44:32;100401.84;;;19.38
53512;BMP280;39392;52.832;13.816;2024-03-02T05:46:59;100402.50;;;19.40
53512;BMP280;39392;52.832;13.816;2024-03-02T05:49:25;100403.34;;;19.41
53512;BMP280;39392;52.832;13.816;2024-03-02T05:51:52;100403.53;;;19.39
53512;BMP280;39392;52.832;13.816;2024-03-02T05:54:18;100400.81;;;19.39
53512;BMP280;39392;52.832;13.816;2024-03-02T05:56:45;100415.25;;;19.40
53512;BMP280;39392;52.832;13.816;2024-03-02T05:59:11;100416.94;;;19.41
53512;BMP280;39392;52.832;13.816;2024-03-02T06:01:42;100420.31;;;19.43
53512;BMP280;39392;52.832;13.816;2024-03-02T06:04:09;100420.31;;;19.43
53512;BMP280;39392;52.832;13.816;2024-03-02T06:06:37;100425.72;;;19.43
53512;BMP280;39392;52.832;13.816;2024-03-02T06:09:04;100424.06;;;19.42
53512;BMP280;39392;52.832;13.816;2024-03-02T06:11:34;100430.34;;;19.42
53512;BMP280;39392;52.832;13.816;2024-03-02T06:14:01;100435.75;;;19.42
53512;BMP280;39392;52.832;13.816;2024-03-02T06:16:28;100427.81;;;19.41
53512;BMP280;39392;52.832;13.816;2024-03-02T06:18:54;100433.25;;;19.41
53512;BMP280;39392;52.832;13.816;2024-03-02T06:21:21;100429.00;;;19.38
53512;BMP280;39392;52.832;13.816;2024-03-02T06:23:48;100429.84;;;19.39
53512;BMP280;39392;52.832;13.816;2024-03-02T06:26:14;100428.84;;;19.40
53512;BMP280;39392;52.832;13.816;2024-03-02T06:28:40;100428.84;;;19.40
53512;BMP280;39392;52.832;13.816;2024-03-02T06:31:07;100435.97;;;19.41
53512;BMP280;39392;52.832;13.816;2024-03-02T06:33:34;100437.00;;;19.40
53512;BMP280;39392;52.832;13.816;2024-03-02T06:36:00;100435.13;;;19.40
53512;BMP280;39392;52.832;13.816;2024-03-02T06:38:27;100440.56;;;19.40
53512;BMP280;39392;52.832;13.816;2024-03-02T06:40:53;100441.19;;;19.42
53512;BMP280;39392;52.832;13.816;2024-03-02T06:43:21;100443.75;;;19.44
53512;BMP280;39392;52.832;13.816;2024-03-02T06:45:51;100439.81;;;19.47
53512;BMP280;39392;52.832;13.816;2024-03-02T06:48:18;100445.06;;;19.48
53512;BMP280;39392;52.832;13.816;2024-03-02T06:50:46;100447.78;;;19.48
53512;BMP280;39392;52.832;13.816;2024-03-02T06:53:19;100447.94;;;19.47
53512;BMP280;39392;52.832;13.816;2024-03-02T06:55:46;100445.44;;;19.45
53512;BMP280;39392;52.832;13.816;2024-03-02T06:58:13;100446.91;;;19.48
53512;BMP280;39392;52.832;13.816;2024-03-02T07:00:46;100452.00;;;19.51
53512;BMP280;39392;52.832;13.816;2024-03-02T07:03:14;100451.34;;;19.49
53512;BMP280;39392;52.832;13.816;2024-03-02T07:05:41;100451.34;;;19.49
53512;BMP280;39392;52.832;13.816;2024-03-02T07:08:07;100454.22;;;19.47
53512;BMP280;39392;52.832;13.816;2024-03-02T07:10:34;100453.38;;;19.47
53512;BMP280;39392;52.832;13.816;2024-03-02T07:13:04;100452.75;;;19.45
53512;BMP280;39392;52.832;13.816;2024-03-02T07:15:31;100463.63;;;19.45
53512;BMP280;39392;52.832;13.816;2024-03-02T07:18:18;100461.06;;;19.43
53512;BMP280;39392;52.832;13.816;2024-03-02T07:20:44;100465.50;;;19.44
53512;BMP280;39392;52.832;13.816;2024-03-02T07:23:10;100463.97;;;19.41
53512;BMP280;39392;52.832;13.816;2024-03-02T07:25:37;100470.44;;;19.40
53512;BMP280;39392;52.832;13.816;2024-03-02T07:28:09;100471.47;;;19.39
53512;BMP280;39392;52.832;13.816;2024-03-02T07:30:35;100479.63;;;19.39
53512;BMP280;39392;52.832;13.816;2024-03-02T07:33:06;100484.41;;;19.37
53512;BMP280;39392;52.832;13.816;2024-03-02T07:35:33;100488.16;;;19.36
53512;BMP280;39392;52.832;13.816;2024-03-02T07:38:00;100500.72;;;19.37
53512;BMP280;39392;52.832;13.816;2024-03-02T07:40:27;100497.50;;;19.34
53512;BMP280;39392;52.832;13.816;2024-03-02T07:42:53;100504.81;;;19.33
53512;BMP280;39392;52.832;13.816;2024-03-02T07:45:20;100507.53;;;19.33
53512;BMP280;39392;52.832;13.816;2024-03-02T07:47:46;100514.00;;;19.32
53512;BMP280;39392;52.832;13.816;2024-03-02T07:50:16;100517.75;;;19.31
53512;BMP280;39392;52.832;13.816;2024-03-02T07:52:42;100522.31;;;19.31
53512;BMP280;39392;52.832;13.816;2024-03-02T07:55:09;100526.91;;;19.30
53512;BMP280;39392;52.832;13.816;2024-03-02T07:57:35;100526.28;;;19.28
53512;BMP280;39392;52.832;13.816;2024-03-02T08:00:02;100537.97;;;19.29
53512;BMP280;39392;52.832;13.816;2024-03-02T08:02:28;100529.00;;;19.28
53512;BMP280;39392;52.832;13.816;2024-03-02T08:04:55;100528.16;;;19.28
53512;BMP280;39392;52.832;13.816;2024-03-02T08:07:24;100520.00;;;19.28
53512;BMP280;39392;52.832;13.816;2024-03-02T08:09:51;100521.88;;;19.27
53512;BMP280;39392;52.832;13.816;2024-03-02T08:12:17;100519.31;;;19.26
53512;BMP280;39392;52.832;13.816;2024-03-02T08:14:46;100518.47;;;19.25
53512;BMP280;39392;52.832;13.816;2024-03-02T08:17:13;100520.34;;;19.25
53512;BMP280;39392;52.832;13.816;2024-03-02T08:19:39;100520.34;;;19.25
53512;BMP280;39392;52.832;13.816;2024-03-02T08:22:05;100519.50;;;19.24
53512;BMP280;39392;52.832;13.816;2024-03-02T08:24:32;100524.09;;;19.24
53512;BMP280;39392;52.832;13.816;2024-03-02T08:26:59;100523.28;;;19.23
53512;BMP280;39392;52.832;13.816;2024-03-02T08:29:26;100531.41;;;19.23
53512;BMP280;39392;52.832;13.816;2024-03-02T08:31:53;100529.72;;;19.22
53512;BMP280;39392;52.832;13.816;2024-03-02T08:34:19;100546.84;;;19.23
53512;BMP280;39392;52.832;13.816;2024-03-02T08:36:46;100544.13;;;19.23
53512;BMP280;39392;52.832;13.816;2024-03-02T08:39:13;100546.00;;;19.22
53512;BMP280;39392;52.832;13.816;2024-03-02T08:41:42;100546.00;;;19.22
53512;BMP280;39392;52.832;13.816;2024-03-02T08:44:09;100550.44;;;19.23
53512;BMP280;39392;52.832;13.816;2024-03-02T08:46:36;100549.75;;;19.21
53512;BMP280;39392;52.832;13.816;2024-03-02T08:49:03;100554.16;;;19.22
53512;BMP280;39392;52.832;13.816;2024-03-02T08:51:30;100556.03;;;19.22
53512;BMP280;39392;52.832;13.816;2024-03-02T08:53:57;100554.84;;;19.24
53512;BMP280;39392;52.832;13.816;2024-03-02T08:56:24;100554.00;;;19.24
53512;BMP280;39392;52.832;13.816;2024-03-02T08:58:53;100556.72;;;19.24
53512;BMP280;39392;52.832;13.816;2024-03-02T09:01:20;100555.69;;;19.25
53512;BMP280;39392;52.832;13.816;2024-03-02T09:03:47;100558.41;;;19.25
53512;BMP280;39392;52.832;13.816;2024-03-02T09:06:13;100549.56;;;19.23
53512;BMP280;39392;52.832;13.816;2024-03-02T09:08:40;100555.88;;;19.23
53512;BMP280;39392;52.832;13.816;2024-03-02T09:11:07;100547.72;;;19.23
53512;BMP280;39392;52.832;13.816;2024-03-02T09:13:33;100549.56;;;19.23
53512;BMP280;39392;52.832;13.816;2024-03-02T09:16:00;100551.28;;;19.24
53512;BMP280;39392;52.832;13.816;2024-03-02T09:18:26;100546.69;;;19.24
53512;BMP280;39392;52.832;13.816;2024-03-02T09:20:53;100549.41;;;19.24
53512;BMP280;39392;52.832;13.816;2024-03-02T09:23:23;100559.44;;;19.24
53512;BMP280;39392;52.832;13.816;2024-03-02T09:25:49;100559.44;;;19.24
53512;BMP280;39392;52.832;13.816;2024-03-02T09:28:15;100566.75;;;19.23
53512;BMP280;39392;52.832;13.816;2024-03-02T09:30:42;100565.88;;;19.23
53512;BMP280;39392;52.832;13.816;2024-03-02T09:33:09;100571.13;;;19.24
53512;BMP280;39392;52.832;13.816;2024-03-02T09:35:38;100568.41;;;19.24
53512;BMP280;39392;52.832;13.816;2024-03-02T09:38:05;100567.59;;;19.24
53512;BMP280;39392;52.832;13.816;2024-03-02T09:40:31;100565.72;;;19.24
53512;BMP280;39392;52.832;13.816;2024-03-02T09:42:58;100564.66;;;19.25
53512;BMP280;39392;52.832;13.816;2024-03-02T09:45:25;100570.09;;;19.25
53512;BMP280;39392;52.832;13.816;2024-03-02T09:47:51;100565.50;;;19.26
53512;BMP280;39392;52.832;13.816;2024-03-02T09:50:18;100569.06;;;19.26
53512;BMP280;39392;52.832;13.816;2024-03-02T09:52:47;100573.84;;;19.24
53512;BMP280;39392;52.832;13.816;2024-03-02T09:55:14;100570.28;;;19.24
53512;BMP280;39392;52.832;13.816;2024-03-02T09:57:42;100580.13;;;19.25
53512;BMP280;39392;52.832;13.816;2024-03-02T10:00:08;100573.00;;;19.24
53512;BMP280;39392;52.832;13.816;2024-03-02T10:02:41;100571.31;;;19.23
53512;BMP280;39392;52.832;13.816;2024-03-02T10:05:13;100574.03;;;19.23
53512;BMP280;39392;52.832;13.816;2024-03-02T10:07:58;100586.59;;;19.24
53512;BMP280;39392;52.832;13.816;2024-03-02T10:10:34;100589.31;;;19.24
53512;BMP280;39392;52.832;13.816;2024-03-02T10:13:08;100590.31;;;19.23
53512;BMP280;39392;52.832;13.816;2024-03-02T10:15:36;100587.59;;;19.23
53512;BMP280;39392;52.832;13.816;2024-03-02T10:18:09;100592.19;;;19.22
53512;BMP280;39392;52.832;13.816;2024-03-02T10:20:39;100593.03;;;19.23
53512;BMP280;39392;52.832;13.816;2024-03-02T10:23:09;100590.31;;;19.23
53512;BMP280;39392;52.832;13.816;2024-03-02T10:25:36;100592.88;;;19.24
53512;BMP280;39392;52.832;13.816;2024-03-02T10:28:16;100586.59;;;19.24
53512;BMP280;39392;52.832;13.816;2024-03-02T10:30:47;100587.59;;;19.23
53512;BMP280;39392;52.832;13.816;2024-03-02T10:33:13;100588.47;;;19.23
53512;BMP280;39392;52.832;13.816;2024-03-02T10:35:40;100583.03;;;19.23
53512;BMP280;39392;52.832;13.816;2024-03-02T10:38:07;100584.03;;;19.22
53512;BMP280;39392;52.832;13.816;2024-03-02T10:40:33;100589.47;;;19.22
53512;BMP280;39392;52.832;13.816;2024-03-02T10:43:01;100580.47;;;19.22
53512;BMP280;39392;52.832;13.816;2024-03-02T10:45:31;100587.78;;;19.21
53512;BMP280;39392;52.832;13.816;2024-03-02T10:47:57;100589.47;;;19.22
53512;BMP280;39392;52.832;13.816;2024-03-02T10:50:24;100592.38;;;19.21
53512;BMP280;39392;52.832;13.816;2024-03-02T10:52:50;100597.81;;;19.21
53512;BMP280;39392;52.832;13.816;2024-03-02T10:55:17;100592.38;;;19.21
53512;BMP280;39392;52.832;13.816;2024-03-02T10:57:51;100586.97;;;19.21
53512;BMP280;39392;52.832;13.816;2024-03-02T11:00:20;100590.50;;;19.21
53512;BMP280;39392;52.832;13.816;2024-03-02T11:02:58;100581.53;;;19.21
53512;BMP280;39392;52.832;13.816;2024-03-02T11:05:29;100588.63;;;19.22
53512;BMP280;39392;52.832;13.816;2024-03-02T11:08:01;100586.13;;;19.20
53512;BMP280;39392;52.832;13.816;2024-03-02T11:10:35;100567.25;;;19.19
53512;BMP280;39392;52.832;13.816;2024-03-02T11:13:06;100574.56;;;19.18
53512;BMP280;39392;52.832;13.816;2024-03-02T11:15:35;100579.84;;;19.20
53512;BMP280;39392;52.832;13.816;2024-03-02T11:18:05;100571.00;;;19.17
53512;BMP280;39392;52.832;13.816;2024-03-02T11:20:38;100564.53;;;19.19
53512;BMP280;39392;52.832;13.816;2024-03-02T11:23:09;100559.09;;;19.19
53512;BMP280;39392;52.832;13.816;2024-03-02T11:25:35;100569.13;;;19.18
53512;BMP280;39392;52.832;13.816;2024-03-02T11:28:03;100568.28;;;19.17
53512;BMP280;39392;52.832;13.816;2024-03-02T11:33:00;100569.97;;;19.19
53512;BMP280;39392;52.832;13.816;2024-03-02T11:35:26;100571.69;;;19.20
53512;BMP280;39392;52.832;13.816;2024-03-02T11:37:54;100569.81;;;19.20
53512;BMP280;39392;52.832;13.816;2024-03-02T11:40:21;100572.53;;;19.20
53512;BMP280;39392;52.832;13.816;2024-03-02T11:42:48;100564.38;;;19.20
53512;BMP280;39392;52.832;13.816;2024-03-02T11:45:17;100573.38;;;19.21
53512;BMP280;39392;52.832;13.816;2024-03-02T11:47:51;100574.41;;;19.20
53512;BMP280;39392;52.832;13.816;2024-03-02T11:50:40;100557.63;;;19.16
53512;BMP280;39392;52.832;13.816;2024-03-02T11:53:07;100566.41;;;19.18
53512;BMP280;39392;52.832;13.816;2024-03-02T11:55:37;100558.47;;;19.16
53512;BMP280;39392;52.832;13.816;2024-03-02T11:58:04;100567.09;;;19.20
53512;BMP280;39392;52.832;13.816;2024-03-02T12:00:30;100563.53;;;19.20
53512;BMP280;39392;52.832;13.816;2024-03-02T12:05:26;100565.03;;;19.22
53512;BMP280;39392;52.832;13.816;2024-03-02T12:07:57;100567.38;;;19.25
53512;BMP280;39392;52.832;13.816;2024-03-02T12:10:24;100561.94;;;19.25
53512;BMP280;39392;52.832;13.816;2024-03-02T12:12:57;100559.03;;;19.27
53512;BMP280;39392;52.832;13.816;2024-03-02T12:15:25;100559.03;;;19.27
53512;BMP280;39392;52.832;13.816;2024-03-02T12:17:54;100558.88;;;19.28
53512;BMP280;39392;52.832;13.816;2024-03-02T12:20:21;100574.34;;;19.28
53512;BMP280;39392;52.832;13.816;2024-03-02T12:22:50;100568.06;;;19.27
53512;BMP280;39392;52.832;13.816;2024-03-02T12:25:19;100558.03;;;19.28
53512;BMP280;39392;52.832;13.816;2024-03-02T12:27:46;100558.88;;;19.28
53512;BMP280;39392;52.832;13.816;2024-03-02T12:30:14;100566.84;;;19.30
53512;BMP280;39392;52.832;13.816;2024-03-02T12:32:40;100563.28;;;19.29
53512;BMP280;39392;52.832;13.816;2024-03-02T12:35:07;100561.59;;;19.28
53512;BMP280;39392;52.832;13.816;2024-03-02T12:37:37;100556.81;;;19.30
53512;BMP280;39392;52.832;13.816;2024-03-02T12:40:09;100552.41;;;19.29
53512;BMP280;39392;52.832;13.816;2024-03-02T12:42:35;100557.00;;;19.29
53512;BMP280;39392;52.832;13.816;2024-03-02T12:45:02;100558.19;;;19.26
53512;BMP280;39392;52.832;13.816;2024-03-02T12:47:30;100557.84;;;19.29
53512;BMP280;39392;52.832;13.816;2024-03-02T12:49:56;100558.53;;;19.31
53512;BMP280;39392;52.832;13.816;2024-03-02T12:52:23;100552.91;;;19.33
53512;BMP280;39392;52.832;13.816;2024-03-02T12:54:50;100566.47;;;19.33
53512;BMP280;39392;52.832;13.816;2024-03-02T12:57:17;100560.56;;;19.29
53512;BMP280;39392;52.832;13.816;2024-03-02T12:59:46;100550.06;;;19.26
53512;BMP280;39392;52.832;13.816;2024-03-02T13:02:17;100556.31;;;19.27
53512;BMP280;39392;52.832;13.816;2024-03-02T13:04:43;100551.75;;;19.27
53512;BMP280;39392;52.832;13.816;2024-03-02T13:07:10;100547.66;;;19.31
53512;BMP280;39392;52.832;13.816;2024-03-02T13:09:39;100556.81;;;19.30
53512;BMP280;39392;52.832;13.816;2024-03-02T13:12:06;100556.81;;;19.30
53512;BMP280;39392;52.832;13.816;2024-03-02T13:14:33;100562.09;;;19.32
53512;BMP280;39392;52.832;13.816;2024-03-02T13:17:00;100553.94;;;19.32
53512;BMP280;39392;52.832;13.816;2024-03-02T13:19:26;100551.84;;;19.34
53512;BMP280;39392;52.832;13.816;2024-03-02T13:21:57;100553.53;;;19.35
53512;BMP280;39392;52.832;13.816;2024-03-02T13:24:24;100545.59;;;19.33
53512;BMP280;39392;52.832;13.816;2024-03-02T13:26:55;100548.09;;;19.35
53512;BMP280;39392;52.832;13.816;2024-03-02T13:29:24;100541.84;;;19.34
53512;BMP280;39392;52.832;13.816;2024-03-02T13:31:50;100543.53;;;19.35
53512;BMP280;39392;52.832;13.816;2024-03-02T13:34:18;100549.97;;;19.34
53512;BMP280;39392;52.832;13.816;2024-03-02T13:36:45;100542.88;;;19.33
53512;BMP280;39392;52.832;13.816;2024-03-02T13:39:11;100545.59;;;19.33
53512;BMP280;39392;52.832;13.816;2024-03-02T13:41:41;100547.47;;;19.33
53512;BMP280;39392;52.832;13.816;2024-03-02T13:44:08;100553.72;;;19.33
53512;BMP280;39392;52.832;13.816;2024-03-02T13:46:34;100541.84;;;19.34
53512;BMP280;39392;52.832;13.816;2024-03-02T13:49:01;100542.88;;;19.33
53512;BMP280;39392;52.832;13.816;2024-03-02T13:51:28;100542.03;;;19.33
53512;BMP280;39392;52.832;13.816;2024-03-02T13:53:54;100543.72;;;19.34
53512;BMP280;39392;52.832;13.816;2024-03-02T13:56:20;100546.41;;;19.34
53512;BMP280;39392;52.832;13.816;2024-03-02T13:58:48;100546.41;;;19.34